createdAt,value
2022-09-24T00:02:11.703Z,97170.69
2022-09-24T00:07:15.369Z,97163.31
2022-09-24T00:12:22.396Z,97163.06
2022-09-24T00:17:26.132Z,97162.56
2022-09-24T00:22:30.132Z,97162.69
2022-09-24T00:27:35.468Z,97162.16
2022-09-24T00:32:39.078Z,97161.78
2022-09-24T00:37:42.814Z,97165.19
2022-09-24T00:42:48.000Z,97161.63
2022-09-24T00:47:52.939Z,97158.28
2022-09-24T00:53:00.276Z,97154.84
2022-09-24T00:58:08.433Z,97157.81
2022-09-24T01:03:15.611Z,97162.69
2022-09-24T01:08:21.184Z,97154.69
2022-09-24T01:13:48.481Z,97153.22
2022-09-24T01:19:00.921Z,97140.28
2022-09-24T01:24:25.277Z,97128.41
2022-09-24T01:29:50.208Z,97139.88
2022-09-24T01:35:00.110Z,97131.03
2022-09-24T01:40:06.394Z,97124.03
2022-09-24T01:45:13.051Z,97133.66
2022-09-24T01:50:18.743Z,97131.91
2022-09-24T01:55:29.873Z,97122.72
2022-09-24T02:00:35.116Z,97119.38
2022-09-24T02:05:45.534Z,97123.28
2022-09-24T02:10:55.923Z,97114.00
2022-09-24T02:16:05.771Z,97110.19
2022-09-24T02:21:12.514Z,97101.91
2022-09-24T02:26:16.316Z,97106.03
2022-09-24T02:31:27.418Z,97102.66
2022-09-24T02:36:31.550Z,97101.28
2022-09-24T02:41:36.150Z,97082.03
2022-09-24T02:46:41.987Z,97072.88
2022-09-24T02:51:46.016Z,97064.38
2022-09-24T02:56:50.129Z,97052.28
2022-09-24T03:01:57.877Z,97045.84
2022-09-24T03:07:01.594Z,97048.78
2022-09-24T03:12:05.328Z,97060.66
2022-09-24T03:17:10.285Z,97050.00
2022-09-24T03:22:13.970Z,97049.69
2022-09-24T03:27:17.966Z,97040.50
2022-09-24T03:32:22.867Z,97038.72
2022-09-24T03:37:26.477Z,97032.00
2022-09-24T03:42:30.202Z,97028.94
2022-09-24T03:47:35.898Z,97021.91
2022-09-24T03:52:39.750Z,97031.25
2022-09-24T03:57:43.522Z,97025.38
2022-09-24T04:02:48.655Z,97032.31
2022-09-24T04:07:52.169Z,97040.81
2022-09-24T04:12:55.940Z,97046.25
2022-09-24T04:18:01.476Z,97044.41
2022-09-24T04:23:05.303Z,97041.41
2022-09-24T04:28:10.559Z,97034.72
2022-09-24T04:33:15.720Z,97041.44
2022-09-24T04:38:21.634Z,97041.84
2022-09-24T04:43:25.558Z,97041.13
2022-09-24T04:48:31.028Z,97050.78
2022-09-24T04:53:35.330Z,97038.41
2022-09-24T04:58:38.929Z,97038.63
2022-09-24T05:03:46.073Z,97040.94
2022-09-24T05:08:49.863Z,97036.00
2022-09-24T05:13:53.446Z,97029.97
2022-09-24T05:18:59.088Z,97030.97
2022-09-24T05:24:02.798Z,97026.84
2022-09-24T05:29:06.734Z,97037.94
2022-09-24T05:34:14.326Z,97038.94
2022-09-24T05:39:18.028Z,97037.84
2022-09-24T05:44:21.684Z,97040.19
2022-09-24T05:49:26.818Z,97048.94
2022-09-24T05:54:30.293Z,97051.38
2022-09-24T05:59:33.701Z,97048.00
2022-09-24T06:04:39.671Z,97031.13
2022-09-24T06:09:44.223Z,97022.03
2022-09-24T06:14:48.021Z,97029.59
2022-09-24T06:19:53.803Z,97016.66
2022-09-24T06:24:58.036Z,97019.81
2022-09-24T06:30:02.274Z,97025.28
2022-09-24T06:35:08.075Z,97032.34
2022-09-24T06:40:12.453Z,97036.63
2022-09-24T06:45:16.112Z,97032.50
2022-09-24T06:50:21.623Z,97039.09
2022-09-24T06:55:25.655Z,97045.25
2022-09-24T07:00:29.965Z,97034.97
2022-09-24T07:05:39.715Z,97031.41
2022-09-24T07:10:49.219Z,97030.44
2022-09-24T07:15:53.388Z,97042.28
2022-09-24T07:20:58.317Z,97027.00
2022-09-24T07:26:01.908Z,97027.00
2022-09-24T07:31:05.630Z,97029.06
2022-09-24T07:36:11.012Z,97037.25
2022-09-24T07:41:14.530Z,97046.41
2022-09-24T07:46:18.215Z,97048.03
2022-09-24T07:51:23.747Z,97038.16
2022-09-24T07:56:27.370Z,97045.38
2022-09-24T08:01:32.536Z,97038.75
2022-09-24T08:06:41.370Z,97045.03
2022-09-24T08:11:48.433Z,97035.72
2022-09-24T08:16:51.912Z,97031.75
2022-09-24T08:21:57.710Z,97031.22
2022-09-24T08:27:01.214Z,97037.69
2022-09-24T08:32:05.243Z,97027.97
2022-09-24T08:37:10.200Z,97023.63
2022-09-24T08:42:24.898Z,97013.44
2022-09-24T08:47:36.371Z,97021.41
2022-09-24T08:52:58.241Z,97016.44
2022-09-24T08:58:19.583Z,97024.69
2022-09-24T09:03:33.351Z,97026.06
2022-09-24T09:14:17.706Z,97028.53
2022-09-24T09:19:26.831Z,97027.59
2022-09-24T09:24:42.201Z,97034.81
2022-09-24T09:29:50.144Z,97032.06
2022-09-24T09:35:00.777Z,97020.72
2022-09-24T09:40:21.670Z,97030.84
2022-09-24T09:45:32.576Z,97025.66
2022-09-24T09:50:41.040Z,97018.47
2022-09-24T09:55:54.257Z,97014.31
2022-09-24T10:01:07.505Z,97019.41
2022-09-24T10:06:13.665Z,97023.41
2022-09-24T10:11:20.232Z,97031.22
2022-09-24T10:16:24.315Z,97015.50
2022-09-24T10:21:34.412Z,97021.59
2022-09-24T10:26:44.983Z,97008.84
2022-09-24T10:31:49.949Z,97006.28
2022-09-24T10:36:59.188Z,96998.81
2022-09-24T10:42:05.510Z,97006.31
2022-09-24T10:47:20.873Z,97008.16
2022-09-24T10:52:40.067Z,97013.41
2022-09-24T10:57:57.523Z,97012.13
2022-09-24T11:03:36.278Z,97011.69
2022-09-24T11:08:55.840Z,97000.28
2022-09-24T11:14:14.414Z,97000.25
2022-09-24T11:19:44.964Z,96997.97
2022-09-24T11:25:10.561Z,96991.31
2022-09-24T11:30:19.808Z,96990.94
2022-09-24T11:35:35.784Z,96985.31
2022-09-24T11:40:56.176Z,96982.31
2022-09-24T11:46:17.248Z,96979.00
2022-09-24T11:51:32.204Z,96982.31
2022-09-24T11:56:41.131Z,96978.22
2022-09-24T12:01:52.875Z,96985.59
2022-09-24T12:07:04.130Z,96976.16
2022-09-24T12:12:10.967Z,96972.66
2022-09-24T12:17:20.187Z,96970.06
2022-09-24T12:22:26.001Z,96965.47
2022-09-24T12:27:35.632Z,96953.81
2022-09-24T12:32:59.146Z,96958.28
2022-09-24T12:38:07.271Z,96965.63
2022-09-24T12:43:25.338Z,96964.81
2022-09-24T12:48:32.056Z,96960.00
2022-09-24T12:53:38.076Z,96970.94
2022-09-24T12:58:43.798Z,96964.16
2022-09-24T13:04:06.891Z,96964.91
2022-09-24T13:09:35.853Z,96955.63
2022-09-24T13:14:39.347Z,96962.97
2022-09-24T13:19:47.041Z,96956.03
2022-09-24T13:24:52.695Z,96961.56
2022-09-24T13:30:08.017Z,96957.91
2022-09-24T13:35:22.003Z,96948.44
2022-09-24T13:40:29.931Z,96954.03
2022-09-24T13:45:37.117Z,96948.53
2022-09-24T13:50:50.208Z,96939.44
2022-09-24T13:55:55.909Z,96946.75
2022-09-24T14:01:02.963Z,96940.56
2022-09-24T14:06:13.354Z,96942.19
2022-09-24T14:11:19.699Z,96941.63
2022-09-24T14:16:24.560Z,96938.88
2022-09-24T14:21:35.037Z,96931.59
2022-09-24T14:26:44.121Z,96944.13
2022-09-24T14:31:50.478Z,96947.00
2022-09-24T14:36:57.218Z,96939.59
2022-09-24T14:42:00.744Z,96929.53
2022-09-24T14:47:04.209Z,96934.88
2022-09-24T14:52:29.075Z,96933.06
2022-09-24T14:57:38.385Z,96934.94
2022-09-24T15:02:41.909Z,96929.91
2022-09-24T15:07:47.884Z,96931.59
2022-09-24T15:12:52.438Z,96935.38
2022-09-24T15:17:56.142Z,96930.56
2022-09-24T15:23:01.946Z,96927.22
2022-09-24T15:28:05.567Z,96933.50
2022-09-24T15:33:12.065Z,96928.88
2022-09-24T15:38:19.297Z,96931.09
2022-09-24T15:43:24.484Z,96940.81
2022-09-24T15:48:27.990Z,96933.69
2022-09-24T15:53:33.733Z,96944.81
2022-09-24T15:58:37.149Z,96941.91
2022-09-24T16:03:41.101Z,96938.03
2022-09-24T16:08:46.075Z,96942.75
2022-09-24T16:13:50.803Z,96933.53
2022-09-24T16:18:54.566Z,96946.94
2022-09-24T16:24:00.647Z,96945.97
2022-09-24T16:29:05.054Z,96949.00
2022-09-24T16:34:08.539Z,96949.66
2022-09-24T16:39:15.744Z,96956.47
2022-09-24T16:44:19.387Z,96954.97
2022-09-24T16:49:24.262Z,96963.63
2022-09-24T16:54:31.386Z,96978.31
2022-09-24T16:59:35.410Z,96977.72
2022-09-24T17:04:39.833Z,96982.22
2022-09-24T17:10:02.703Z,96980.91
2022-09-24T17:15:07.415Z,96975.13
2022-09-24T17:20:10.866Z,96977.91
2022-09-24T17:25:16.076Z,96988.13
2022-09-24T17:30:19.638Z,96988.06
2022-09-24T17:35:23.124Z,96992.00
2022-09-24T17:40:27.986Z,96989.97
2022-09-24T17:45:31.653Z,96992.50
2022-09-24T17:50:35.963Z,96993.31
2022-09-24T17:55:49.465Z,97001.78
2022-09-24T18:00:54.897Z,96997.41
2022-09-24T18:06:01.658Z,97012.22
2022-09-24T18:11:08.703Z,97008.88
2022-09-24T18:16:13.782Z,97010.81
2022-09-24T18:21:21.646Z,97010.22
2022-09-24T18:26:28.714Z,97020.53
2022-09-24T18:31:36.893Z,97015.66
2022-09-24T18:36:43.471Z,97026.47
2022-09-24T18:41:49.246Z,97031.78
2022-09-24T18:46:57.269Z,97029.44
2022-09-24T18:52:00.917Z,97027.34
2022-09-24T18:57:06.741Z,97026.09
2022-09-24T19:02:11.103Z,97027.97
2022-09-24T19:07:14.661Z,97022.56
2022-09-24T19:12:21.225Z,97021.69
2022-09-24T19:17:25.956Z,97027.63
2022-09-24T19:22:33.753Z,97033.44
2022-09-24T19:27:40.900Z,97030.56
2022-09-24T19:32:46.477Z,97043.25
2022-09-24T19:37:50.708Z,97034.69
2022-09-24T19:42:56.208Z,97040.19
2022-09-24T19:48:00.376Z,97041.13
2022-09-24T19:53:05.867Z,97037.41
2022-09-24T19:58:12.711Z,97028.34
2022-09-24T20:03:17.527Z,97039.06
2022-09-24T20:08:21.248Z,97032.41
2022-09-24T20:13:28.647Z,97037.75
2022-09-24T20:18:34.664Z,97034.38
2022-09-24T20:23:39.671Z,97029.09
2022-09-24T20:28:46.629Z,97033.16
2022-09-24T20:33:51.290Z,97037.47
2022-09-24T20:38:55.043Z,97042.22
2022-09-24T20:44:00.362Z,97049.88
2022-09-24T20:49:03.932Z,97044.16
2022-09-24T20:54:07.354Z,97039.41
2022-09-24T20:59:14.113Z,97039.28
2022-09-24T21:04:20.334Z,97050.44
2022-09-24T21:09:24.394Z,97055.75
2022-09-24T21:14:30.136Z,97057.56
2022-09-24T21:19:36.514Z,97057.56
2022-09-24T21:24:41.187Z,97060.34
2022-09-24T21:29:47.144Z,97062.44
2022-09-24T21:34:50.862Z,97061.19
2022-09-24T21:39:55.014Z,97060.91
2022-09-24T21:45:01.250Z,97065.66
2022-09-24T21:50:05.546Z,97068.03
2022-09-24T21:55:13.703Z,97066.22
2022-09-24T22:00:19.093Z,97061.06
2022-09-24T22:05:24.000Z,97056.75
2022-09-24T22:10:27.604Z,97050.75
2022-09-24T22:15:33.683Z,97050.59
2022-09-24T22:20:43.396Z,97053.13
2022-09-24T22:25:47.112Z,97048.53
2022-09-24T22:30:52.850Z,97054.22
2022-09-24T22:35:56.824Z,97045.84
2022-09-24T22:41:01.216Z,97047.09
2022-09-24T22:46:08.099Z,97039.56
2022-09-24T22:51:11.583Z,97048.63
2022-09-24T22:56:16.729Z,97039.59
2022-09-24T23:01:23.900Z,97047.66
2022-09-24T23:06:28.037Z,97046.28
2022-09-24T23:11:33.284Z,97039.03
2022-09-24T23:16:39.239Z,97036.66
2022-09-24T23:21:42.927Z,97038.88
2022-09-24T23:26:47.517Z,97036.94
2022-09-24T23:31:52.306Z,97028.97
2022-09-24T23:36:55.767Z,97031.19
2022-09-24T23:41:59.193Z,97034.00
2022-09-24T23:47:04.042Z,97025.06
2022-09-24T23:52:07.498Z,97026.44
2022-09-24T23:57:11.269Z,97030.53
